Time;durP1;ratioP1;P1;durP2;ratioP2;P2;SDS_P1;SDS_P2;PMS_P1;PMS_P2;Temp;Humidity;BMP_temperature;BMP_pressure;BME280_temperature;BME280_humidity;BME280_pressure;Samples;Min_cycle;Max_cycle;Signal;HPM_P1;HPM_P2
2021/08/17 00:01:28;;;;;;;7.53;6.35;;;;;;;;;;1875254;76;21028;-51
2021/08/17 00:03:57;;;;;;;10.30;6.78;;;;;;;;;;1875319;76;21032;-49
2021/08/17 00:06:25;;;;;;;10.68;7.03;;;;;;;;;;1875365;76;21101;-49
2021/08/17 00:08:54;;;;;;;11.85;7.10;;;;;;;;;;1875447;76;21164;-50
2021/08/17 00:11:23;;;;;;;9.08;6.62;;;;;;;;;;1875394;76;21040;-47
2021/08/17 00:13:52;;;;;;;10.18;7.00;;;;;;;;;;1875289;76;21036;-50
2021/08/17 00:16:21;;;;;;;12.53;6.78;;;;;;;;;;1875243;76;21067;-50
2021/08/17 00:18:49;;;;;;;11.38;6.97;;;;;;;;;;1875312;76;21075;-48
2021/08/17 00:21:18;;;;;;;10.70;6.85;;;;;;;;;;1875418;76;21032;-51
2021/08/17 00:23:47;;;;;;;8.58;6.90;;;;;;;;;;1875275;76;21032;-49
2021/08/17 00:26:15;;;;;;;9.80;7.22;;;;;;;;;;1875323;76;21028;-48
2021/08/17 00:28:44;;;;;;;11.30;6.97;;;;;;;;;;1875394;76;21102;-49
2021/08/17 00:31:13;;;;;;;9.40;7.12;;;;;;;;;;1875399;76;21039;-50
2021/08/17 00:33:42;;;;;;;10.10;7.00;;;;;;;;;;1875363;75;21068;-48
2021/08/17 00:36:11;;;;;;;10.48;7.55;;;;;;;;;;1875354;76;21060;-50
2021/08/17 00:38:41;;;;;;;7.10;6.33;;;;;;;;;;1875406;76;21083;-51
2021/08/17 00:41:11;;;;;;;9.98;7.17;;;;;;;;;;1875391;76;21575;-48
2021/08/17 00:43:40;;;;;;;7.65;6.85;;;;;;;;;;1874361;76;21071;-49
2021/08/17 00:46:08;;;;;;;10.50;6.83;;;;;;;;;;1875290;76;21482;-48
2021/08/17 00:48:37;;;;;;;13.88;6.92;;;;;;;;;;1875400;76;21102;-49
2021/08/17 00:51:08;;;;;;;8.98;6.40;;;;;;;;;;1875395;76;21040;-49
2021/08/17 00:53:36;;;;;;;7.67;6.58;;;;;;;;;;1874804;75;21094;-51
2021/08/17 00:56:06;;;;;;;10.90;6.78;;;;;;;;;;1875364;76;21039;-50
2021/08/17 00:58:35;;;;;;;10.18;6.97;;;;;;;;;;1875398;76;21047;-47
2021/08/17 01:01:03;;;;;;;8.58;7.00;;;;;;;;;;1875286;76;21027;-49
2021/08/17 01:03:32;;;;;;;8.10;6.55;;;;;;;;;;1875395;76;21028;-50
2021/08/17 01:06:01;;;;;;;9.60;6.55;;;;;;;;;;1875249;76;21043;-49
2021/08/17 01:08:30;;;;;;;14.65;7.58;;;;;;;;;;1875427;76;21153;-48
2021/08/17 01:10:59;;;;;;;9.43;6.53;;;;;;;;;;1875282;76;21099;-48
2021/08/17 01:13:28;;;;;;;11.35;7.15;;;;;;;;;;1875291;76;21039;-48
2021/08/17 01:15:58;;;;;;;7.30;6.45;;;;;;;;;;1875331;76;21127;-47
2021/08/17 01:18:26;;;;;;;9.05;7.67;;;;;;;;;;1875359;76;21109;-48
2021/08/17 01:20:55;;;;;;;6.83;6.00;;;;;;;;;;1875372;76;21040;-51
2021/08/17 01:23:24;;;;;;;8.33;5.75;;;;;;;;;;1875331;76;21106;-48
2021/08/17 01:25:53;;;;;;;9.65;6.17;;;;;;;;;;1875230;76;21032;-48
2021/08/17 01:28:22;;;;;;;13.30;6.47;;;;;;;;;;1875305;76;21110;-47
2021/08/17 01:31:01;;;;;;;9.63;6.40;;;;;;;;;;1875248;76;21023;-51
2021/08/17 01:33:30;;;;;;;9.05;6.72;;;;;;;;;;1875305;75;21565;-48
2021/08/17 01:36:00;;;;;;;10.18;6.42;;;;;;;;;;1875289;76;21028;-50
2021/08/17 01:38:29;;;;;;;9.60;6.87;;;;;;;;;;1875326;76;21031;-47
2021/08/17 01:40:58;;;;;;;8.10;6.45;;;;;;;;;;1875295;76;21043;-48
2021/08/17 01:43:27;;;;;;;8.93;6.75;;;;;;;;;;1875355;76;21035;-47
2021/08/17 01:45:57;;;;;;;8.58;6.45;;;;;;;;;;1875241;76;21114;-51
2021/08/17 01:48:29;;;;;;;9.33;6.17;;;;;;;;;;1875404;76;21035;-50
2021/08/17 01:50:58;;;;;;;8.30;6.42;;;;;;;;;;1875364;76;21036;-47
2021/08/17 01:53:27;;;;;;;9.83;6.70;;;;;;;;;;1875310;76;21134;-49
2021/08/17 01:55:57;;;;;;;9.18;6.67;;;;;;;;;;1875215;76;21000;-48
2021/08/17 01:58:26;;;;;;;10.15;6.62;;;;;;;;;;1875280;76;21110;-49
2021/08/17 02:00:55;;;;;;;10.88;6.97;;;;;;;;;;1875356;76;21043;-48
2021/08/17 02:03:24;;;;;;;13.53;6.72;;;;;;;;;;1875387;76;20999;-49
2021/08/17 02:05:53;;;;;;;8.20;6.03;;;;;;;;;;1875196;76;21098;-47
2021/08/17 02:08:21;;;;;;;13.95;6.15;;;;;;;;;;1875264;76;21039;-50
2021/08/17 02:10:50;;;;;;;9.33;6.70;;;;;;;;;;1875353;76;21119;-48
2021/08/17 02:13:20;;;;;;;9.55;6.97;;;;;;;;;;1875309;76;21086;-50
2021/08/17 02:15:49;;;;;;;8.93;6.12;;;;;;;;;;1875204;76;21032;-51
2021/08/17 02:18:18;;;;;;;12.33;7.72;;;;;;;;;;1875376;76;21051;-47
2021/08/17 02:20:47;;;;;;;17.15;7.05;;;;;;;;;;1875320;76;21031;-49
2021/08/17 02:23:15;;;;;;;8.98;7.62;;;;;;;;;;1875456;76;21134;-50
2021/08/17 02:25:44;;;;;;;10.85;6.45;;;;;;;;;;1875291;76;21044;-50
2021/08/17 02:28:13;;;;;;;10.58;6.50;;;;;;;;;;1875346;76;21048;-49
2021/08/17 02:30:42;;;;;;;12.07;6.17;;;;;;;;;;1875219;76;21020;-50
2021/08/17 02:33:11;;;;;;;10.20;6.60;;;;;;;;;;1877310;75;21049;-48
2021/08/17 02:35:40;;;;;;;13.53;8.08;;;;;;;;;;1886970;76;21061;-50
2021/08/17 02:38:09;;;;;;;14.95;6.67;;;;;;;;;;1887152;76;21049;-50
2021/08/17 02:40:39;;;;;;;11.30;6.85;;;;;;;;;;1887030;76;21024;-48
2021/08/17 02:43:07;;;;;;;10.65;6.35;;;;;;;;;;1887037;76;21029;-49
2021/08/17 02:45:36;;;;;;;9.83;6.65;;;;;;;;;;1886980;76;21122;-50
2021/08/17 02:48:05;;;;;;;10.95;6.70;;;;;;;;;;1887076;76;21037;-47
2021/08/17 02:50:34;;;;;;;12.80;7.17;;;;;;;;;;1886978;76;21041;-47
2021/08/17 02:53:03;;;;;;;9.60;6.65;;;;;;;;;;1886955;76;21049;-47
2021/08/17 02:55:32;;;;;;;12.78;7.55;;;;;;;;;;1886933;76;21061;-49
2021/08/17 02:58:08;;;;;;;13.70;7.42;;;;;;;;;;1886963;76;21093;-50
2021/08/17 03:00:39;;;;;;;11.00;6.85;;;;;;;;;;1886928;76;21522;-50
2021/08/17 03:03:08;;;;;;;11.18;6.55;;;;;;;;;;1887108;76;21140;-50
2021/08/17 03:05:36;;;;;;;9.00;6.67;;;;;;;;;;1887056;76;21115;-50
2021/08/17 03:08:06;;;;;;;10.03;6.83;;;;;;;;;;1887036;76;21033;-50
2021/08/17 03:10:36;;;;;;;9.43;6.67;;;;;;;;;;1887036;76;21053;-50
2021/08/17 03:13:06;;;;;;;13.58;7.08;;;;;;;;;;1886934;76;21107;-47
2021/08/17 03:15:34;;;;;;;12.68;7.15;;;;;;;;;;1886985;76;21644;-51
2021/08/17 03:18:05;;;;;;;9.20;6.60;;;;;;;;;;1887037;76;21124;-50
2021/08/17 03:20:34;;;;;;;9.98;7.37;;;;;;;;;;1887070;76;21115;-50
2021/08/17 03:23:05;;;;;;;12.98;7.75;;;;;;;;;;1886979;76;21076;-48
2021/08/17 03:25:33;;;;;;;11.55;6.85;;;;;;;;;;1887016;76;21033;-49
2021/08/17 03:28:02;;;;;;;10.98;7.75;;;;;;;;;;1886946;76;21025;-47
2021/08/17 03:30:31;;;;;;;13.80;9.50;;;;;;;;;;1886967;76;21072;-48
2021/08/17 03:32:59;;;;;;;16.50;10.68;;;;;;;;;;1887034;76;21033;-48
2021/08/17 03:35:28;;;;;;;20.50;11.20;;;;;;;;;;1876168;76;21107;-47
2021/08/17 03:37:57;;;;;;;13.08;7.30;;;;;;;;;;1875320;76;21169;-50
2021/08/17 03:40:26;;;;;;;9.18;7.20;;;;;;;;;;1875291;76;21020;-48
2021/08/17 03:42:54;;;;;;;22.02;10.43;;;;;;;;;;1875479;76;21036;-47
2021/08/17 03:45:23;;;;;;;14.23;9.33;;;;;;;;;;1875279;76;21043;-48
2021/08/17 03:47:52;;;;;;;13.45;7.80;;;;;;;;;;1875298;76;21047;-47
2021/08/17 03:50:21;;;;;;;12.45;7.40;;;;;;;;;;1875328;75;21099;-48
2021/08/17 03:52:50;;;;;;;17.87;8.65;;;;;;;;;;1875253;76;21106;-48
2021/08/17 03:55:18;;;;;;;18.85;8.85;;;;;;;;;;1875322;76;21047;-49
2021/08/17 03:57:48;;;;;;;12.65;8.80;;;;;;;;;;1875283;76;21122;-50
2021/08/17 04:00:18;;;;;;;21.95;11.25;;;;;;;;;;1875273;76;21040;-49
2021/08/17 04:02:46;;;;;;;29.63;14.00;;;;;;;;;;1875286;76;21109;-49
2021/08/17 04:05:15;;;;;;;23.38;13.48;;;;;;;;;;1875329;76;21102;-48
2021/08/17 04:07:44;;;;;;;23.57;12.40;;;;;;;;;;1875249;76;21016;-51
2021/08/17 04:10:13;;;;;;;22.75;12.58;;;;;;;;;;1875275;76;21044;-50
2021/08/17 04:12:41;;;;;;;22.60;13.72;;;;;;;;;;1875377;76;21059;-47
2021/08/17 04:15:10;;;;;;;21.95;11.25;;;;;;;;;;1875267;76;21114;-50
2021/08/17 04:17:39;;;;;;;18.05;11.18;;;;;;;;;;1875236;76;21052;-48
2021/08/17 04:20:09;;;;;;;25.50;12.73;;;;;;;;;;1875208;76;21173;-49
2021/08/17 04:22:38;;;;;;;24.77;11.95;;;;;;;;;;1875247;76;21572;-49
2021/08/17 04:25:07;;;;;;;19.05;10.00;;;;;;;;;;1875185;76;21059;-49
2021/08/17 04:27:36;;;;;;;21.12;10.85;;;;;;;;;;1875192;76;21044;-49
2021/08/17 04:30:06;;;;;;;15.68;10.53;;;;;;;;;;1875155;76;21020;-49
2021/08/17 04:32:34;;;;;;;14.23;10.23;;;;;;;;;;1875192;76;21107;-47
2021/08/17 04:35:03;;;;;;;14.47;9.30;;;;;;;;;;1875332;75;21130;-48
2021/08/17 04:37:32;;;;;;;17.27;9.00;;;;;;;;;;1875256;76;21098;-50
2021/08/17 04:40:01;;;;;;;13.30;6.95;;;;;;;;;;1875269;76;21427;-49
2021/08/17 04:42:30;;;;;;;11.05;7.60;;;;;;;;;;1875255;76;21102;-48
2021/08/17 04:44:59;;;;;;;15.55;7.47;;;;;;;;;;1875222;76;21043;-49
2021/08/17 04:47:27;;;;;;;8.70;6.03;;;;;;;;;;1875344;76;21044;-50
2021/08/17 04:49:56;;;;;;;9.85;7.55;;;;;;;;;;1875283;76;21043;-50
2021/08/17 04:52:25;;;;;;;8.83;6.87;;;;;;;;;;1875327;76;21102;-48
2021/08/17 04:54:54;;;;;;;11.20;5.75;;;;;;;;;;1875359;76;21118;-50
2021/08/17 04:57:23;;;;;;;12.20;6.08;;;;;;;;;;1875304;76;21039;-47
2021/08/17 04:59:52;;;;;;;8.35;6.47;;;;;;;;;;1875374;76;21079;-49
2021/08/17 05:02:21;;;;;;;37.23;19.42;;;;;;;;;;1875348;76;21040;-49
2021/08/17 05:04:49;;;;;;;10.28;6.65;;;;;;;;;;1875180;76;21020;-50
2021/08/17 05:07:18;;;;;;;15.38;6.55;;;;;;;;;;1875232;76;21024;-48
2021/08/17 05:09:47;;;;;;;9.00;6.33;;;;;;;;;;1875281;76;21035;-50
2021/08/17 05:12:15;;;;;;;10.58;6.62;;;;;;;;;;1875276;76;21032;-51
2021/08/17 05:14:44;;;;;;;10.98;6.28;;;;;;;;;;1875328;76;21102;-51
2021/08/17 05:17:13;;;;;;;9.93;6.28;;;;;;;;;;1875312;76;21027;-51
2021/08/17 05:19:41;;;;;;;18.98;8.28;;;;;;;;;;1875329;76;21083;-51
2021/08/17 05:22:10;;;;;;;9.58;6.25;;;;;;;;;;1875215;76;21039;-51
2021/08/17 05:24:39;;;;;;;8.10;6.67;;;;;;;;;;1875253;76;21059;-51
2021/08/17 05:27:08;;;;;;;9.95;8.28;;;;;;;;;;1875241;76;21036;-51
2021/08/17 05:29:36;;;;;;;6.80;5.58;;;;;;;;;;1875303;76;21093;-50
2021/08/17 05:32:06;;;;;;;11.68;6.85;;;;;;;;;;1875231;76;21048;-50
2021/08/17 05:34:35;;;;;;;12.75;6.87;;;;;;;;;;1877427;75;21065;-51
2021/08/17 05:37:03;;;;;;;12.05;6.70;;;;;;;;;;1886968;76;21021;-53
2021/08/17 05:39:32;;;;;;;11.15;6.78;;;;;;;;;;1886914;76;21060;-51
2021/08/17 05:42:01;;;;;;;28.15;10.50;;;;;;;;;;1886849;76;21038;-50
2021/08/17 05:44:30;;;;;;;14.07;9.68;;;;;;;;;;1886916;76;21018;-51
2021/08/17 05:46:59;;;;;;;10.32;7.08;;;;;;;;;;1886922;76;21033;-50
2021/08/17 05:49:27;;;;;;;7.97;6.60;;;;;;;;;;1886972;76;21025;-50
2021/08/17 05:51:56;;;;;;;11.28;6.42;;;;;;;;;;1886759;76;21038;-50
2021/08/17 05:54:25;;;;;;;7.78;6.17;;;;;;;;;;1886867;76;21132;-51
2021/08/17 05:56:56;;;;;;;9.48;6.37;;;;;;;;;;1887096;76;21021;-51
2021/08/17 05:59:25;;;;;;;9.70;6.42;;;;;;;;;;1886985;76;21574;-49
2021/08/17 06:01:55;;;;;;;11.40;6.62;;;;;;;;;;1886883;76;21049;-51
2021/08/17 06:04:24;;;;;;;9.30;6.30;;;;;;;;;;1886922;76;21037;-50
2021/08/17 06:06:52;;;;;;;18.75;6.65;;;;;;;;;;1886958;76;21033;-51
2021/08/17 06:09:21;;;;;;;9.38;5.75;;;;;;;;;;1886903;76;21029;-51
2021/08/17 06:11:52;;;;;;;11.38;6.28;;;;;;;;;;1886961;76;21010;-51
2021/08/17 06:14:21;;;;;;;10.82;6.90;;;;;;;;;;1886845;76;21170;-50
2021/08/17 06:16:50;;;;;;;16.80;8.15;;;;;;;;;;1886858;76;21111;-51
2021/08/17 06:19:19;;;;;;;14.58;7.10;;;;;;;;;;1886895;76;21049;-51
2021/08/17 06:21:48;;;;;;;8.03;5.65;;;;;;;;;;1886923;76;21045;-51
2021/08/17 06:24:17;;;;;;;9.30;6.03;;;;;;;;;;1886860;76;21116;-51
2021/08/17 06:26:45;;;;;;;10.72;6.87;;;;;;;;;;1886859;76;21061;-51
2021/08/17 06:29:15;;;;;;;8.28;5.83;;;;;;;;;;1886876;76;21140;-50
2021/08/17 06:31:44;;;;;;;7.30;6.35;;;;;;;;;;1886918;76;21045;-51
2021/08/17 06:34:13;;;;;;;6.85;5.87;;;;;;;;;;1886802;76;21122;-51
2021/08/17 06:36:42;;;;;;;7.25;5.40;;;;;;;;;;1886906;76;21116;-50
2021/08/17 06:39:11;;;;;;;6.83;5.67;;;;;;;;;;1886891;76;21037;-51
2021/08/17 06:41:39;;;;;;;11.18;6.10;;;;;;;;;;1886844;76;21045;-51
2021/08/17 06:44:08;;;;;;;6.90;5.25;;;;;;;;;;1886746;76;21045;-48
2021/08/17 06:46:37;;;;;;;11.08;5.60;;;;;;;;;;1886795;76;21119;-50
2021/08/17 06:49:06;;;;;;;7.95;5.22;;;;;;;;;;1886823;76;21111;-51
2021/08/17 06:51:35;;;;;;;9.95;5.40;;;;;;;;;;1886792;76;21046;-52
2021/08/17 06:54:04;;;;;;;10.20;5.55;;;;;;;;;;1886854;76;21045;-50
2021/08/17 06:56:33;;;;;;;7.42;6.00;;;;;;;;;;1886825;76;21062;-49
2021/08/17 06:59:02;;;;;;;12.37;6.35;;;;;;;;;;1886926;76;21170;-48
2021/08/17 07:01:30;;;;;;;10.20;7.00;;;;;;;;;;1886967;76;21034;-50
2021/08/17 07:03:59;;;;;;;14.13;7.10;;;;;;;;;;1886894;76;21069;-50
2021/08/17 07:06:28;;;;;;;13.60;6.95;;;;;;;;;;1886847;76;21045;-50
2021/08/17 07:08:58;;;;;;;8.40;5.75;;;;;;;;;;1886730;76;21041;-50
2021/08/17 07:11:27;;;;;;;8.40;6.65;;;;;;;;;;1886776;76;21508;-50
2021/08/17 07:13:56;;;;;;;7.28;6.00;;;;;;;;;;1886957;76;21049;-50
2021/08/17 07:16:24;;;;;;;9.25;5.97;;;;;;;;;;1886832;76;21065;-49
2021/08/17 07:18:53;;;;;;;10.05;6.50;;;;;;;;;;1886727;76;21058;-48
2021/08/17 07:21:22;;;;;;;7.78;5.75;;;;;;;;;;1886852;76;21029;-49
2021/08/17 07:23:51;;;;;;;9.33;5.95;;;;;;;;;;1886900;76;21049;-49
2021/08/17 07:26:20;;;;;;;8.58;6.90;;;;;;;;;;1886870;76;21037;-50
2021/08/17 07:28:49;;;;;;;11.83;7.30;;;;;;;;;;1886765;76;21030;-49
2021/08/17 07:31:36;;;;;;;8.88;6.15;;;;;;;;;;1886914;76;21033;-49
2021/08/17 07:34:05;;;;;;;15.50;7.00;;;;;;;;;;1886962;76;21041;-49
2021/08/17 07:36:36;;;;;;;10.10;7.08;;;;;;;;;;1886992;74;21069;-48
2021/08/17 07:39:05;;;;;;;7.85;6.15;;;;;;;;;;1885445;76;21077;-48
2021/08/17 07:41:34;;;;;;;10.35;6.22;;;;;;;;;;1886357;76;21087;-47
2021/08/17 07:44:03;;;;;;;11.18;7.00;;;;;;;;;;1886269;76;21068;-46
2021/08/17 07:46:32;;;;;;;8.65;6.78;;;;;;;;;;1886162;76;21077;-48
2021/08/17 07:49:01;;;;;;;16.30;9.55;;;;;;;;;;1886277;76;21135;-45
2021/08/17 07:51:30;;;;;;;13.65;7.25;;;;;;;;;;1886414;76;21038;-46
2021/08/17 07:53:58;;;;;;;10.95;8.28;;;;;;;;;;1886186;76;21111;-46
2021/08/17 07:56:27;;;;;;;10.72;6.87;;;;;;;;;;1886447;76;21104;-45
2021/08/17 07:58:56;;;;;;;9.98;7.78;;;;;;;;;;1886230;76;21037;-44
2021/08/17 08:01:25;;;;;;;26.02;18.05;;;;;;;;;;1886306;76;21069;-46
2021/08/17 08:04:13;;;;;;;;;;;;;;;;;;;;;
2021/08/17 08:06:43;;;;;;;10.68;6.17;;;;;;;;;;1887528;76;21584;-45
2021/08/17 08:09:23;;;;;;;7.03;5.87;;;;;;;;;;1890878;75;21059;-48
2021/08/17 08:11:53;;;;;;;8.38;5.55;;;;;;;;;;1890639;76;21095;-49
2021/08/17 08:14:22;;;;;;;9.48;5.80;;;;;;;;;;1891432;76;21032;-45
2021/08/17 08:16:51;;;;;;;7.20;5.72;;;;;;;;;;1892076;76;21095;-47
2021/08/17 08:19:20;;;;;;;10.43;5.85;;;;;;;;;;1892409;76;21020;-48
2021/08/17 08:21:48;;;;;;;11.25;5.85;;;;;;;;;;1892755;76;21024;-47
2021/08/17 08:24:17;;;;;;;12.07;6.47;;;;;;;;;;1892803;76;21086;-49
2021/08/17 08:26:46;;;;;;;8.08;5.90;;;;;;;;;;1892883;76;21064;-45
2021/08/17 08:29:15;;;;;;;13.08;9.18;;;;;;;;;;1888565;76;21018;-49
2021/08/17 08:31:44;;;;;;;8.28;6.97;;;;;;;;;;1891217;76;21061;-49
2021/08/17 08:34:13;;;;;;;12.35;6.50;;;;;;;;;;1892601;76;21134;-48
2021/08/17 08:36:42;;;;;;;7.78;4.92;;;;;;;;;;1892593;76;21170;-47
2021/08/17 08:39:11;;;;;;;10.90;5.60;;;;;;;;;;1892686;76;21037;-47
2021/08/17 08:41:40;;;;;;;15.28;7.67;;;;;;;;;;1892669;76;21107;-46
2021/08/17 08:44:09;;;;;;;8.45;6.22;;;;;;;;;;1892723;75;21017;-49
2021/08/17 08:46:38;;;;;;;7.80;5.58;;;;;;;;;;1892685;75;21041;-45
2021/08/17 08:49:07;;;;;;;5.87;5.05;;;;;;;;;;1892638;75;21033;-47
2021/08/17 08:51:36;;;;;;;7.83;5.58;;;;;;;;;;1892783;76;21037;-48
2021/08/17 08:54:05;;;;;;;10.48;5.53;;;;;;;;;;1892788;76;21103;-49
2021/08/17 08:56:34;;;;;;;6.95;5.72;;;;;;;;;;1892729;76;21001;-50
2021/08/17 08:59:03;;;;;;;8.60;6.00;;;;;;;;;;1892674;76;21107;-45
2021/08/17 09:01:32;;;;;;;9.85;5.87;;;;;;;;;;1892947;76;21350;-50
2021/08/17 09:04:00;;;;;;;7.42;5.55;;;;;;;;;;1892775;75;21123;-48
2021/08/17 09:06:30;;;;;;;7.47;6.00;;;;;;;;;;1892650;76;21041;-48
2021/08/17 09:09:06;;;;;;;6.75;5.90;;;;;;;;;;1891590;76;21099;-49
2021/08/17 09:11:35;;;;;;;9.78;5.45;;;;;;;;;;1892678;76;21037;-50
2021/08/17 09:14:21;;;;;;;7.08;6.12;;;;;;;;;;1892663;76;21080;-49
2021/08/17 09:16:53;;;;;;;27.62;7.40;;;;;;;;;;1892658;76;21092;-46
2021/08/17 09:19:25;;;;;;;9.65;6.55;;;;;;;;;;1892770;76;21088;-49
2021/08/17 09:21:55;;;;;;;11.33;6.62;;;;;;;;;;1892616;76;21049;-47
2021/08/17 09:24:25;;;;;;;13.22;7.10;;;;;;;;;;1892764;74;21084;-47
2021/08/17 09:26:55;;;;;;;10.23;7.25;;;;;;;;;;1892822;76;21575;-49
2021/08/17 09:29:25;;;;;;;10.50;6.40;;;;;;;;;;1892596;76;21096;-50
2021/08/17 09:31:54;;;;;;;12.63;6.72;;;;;;;;;;1892757;76;21084;-47
2021/08/17 09:34:24;;;;;;;11.03;7.05;;;;;;;;;;1892772;76;21342;-49
2021/08/17 09:36:53;;;;;;;11.35;7.97;;;;;;;;;;1891974;74;21128;-48
2021/08/17 09:39:29;;;;;;;12.60;8.58;;;;;;;;;;1892618;76;21072;-51
2021/08/17 09:42:08;;;;;;;12.15;8.18;;;;;;;;;;1892899;74;21091;-45
2021/08/17 09:44:37;;;;;;;10.98;8.13;;;;;;;;;;1892654;76;21162;-49
2021/08/17 09:47:06;;;;;;;14.35;8.53;;;;;;;;;;1892795;76;21083;-49
2021/08/17 09:49:35;;;;;;;12.50;8.38;;;;;;;;;;1892763;76;21037;-48
2021/08/17 09:52:15;;;;;;;15.05;8.83;;;;;;;;;;1892640;76;21088;-49
2021/08/17 09:54:45;;;;;;;13.10;8.98;;;;;;;;;;1891652;75;21037;-49
2021/08/17 09:57:14;;;;;;;11.83;7.42;;;;;;;;;;1892802;76;21207;-48
2021/08/17 09:59:43;;;;;;;14.40;8.40;;;;;;;;;;1892702;76;21072;-47
2021/08/17 10:02:13;;;;;;;11.78;8.58;;;;;;;;;;1891666;76;21076;-46
2021/08/17 10:04:44;;;;;;;14.35;8.60;;;;;;;;;;1892808;75;21116;-49
2021/08/17 10:07:12;;;;;;;14.87;8.90;;;;;;;;;;1892579;75;21064;-48
2021/08/17 10:09:41;;;;;;;15.68;8.93;;;;;;;;;;1892733;76;21108;-48
2021/08/17 10:12:10;;;;;;;13.18;8.63;;;;;;;;;;1892642;75;21045;-49
2021/08/17 10:14:40;;;;;;;14.35;8.85;;;;;;;;;;1893206;76;21115;-48
2021/08/17 10:17:09;;;;;;;15.28;9.33;;;;;;;;;;1893516;76;21005;-50
2021/08/17 10:19:38;;;;;;;17.80;10.08;;;;;;;;;;1893383;76;21045;-50
2021/08/17 10:22:07;;;;;;;14.03;10.15;;;;;;;;;;1893362;76;21107;-50
2021/08/17 10:24:37;;;;;;;13.72;10.05;;;;;;;;;;1893254;76;21049;-47
2021/08/17 10:27:07;;;;;;;18.00;9.93;;;;;;;;;;1893429;76;21471;-50
2021/08/17 10:29:36;;;;;;;16.62;9.43;;;;;;;;;;1888345;76;21491;-50
2021/08/17 10:32:05;;;;;;;20.15;10.40;;;;;;;;;;1893353;75;21119;-50
2021/08/17 10:34:37;;;;;;;14.45;9.98;;;;;;;;;;1893302;76;21087;-48
2021/08/17 10:37:22;;;;;;;14.95;9.95;;;;;;;;;;1891741;74;21109;-49
2021/08/17 10:39:50;;;;;;;15.32;9.45;;;;;;;;;;1886953;75;21029;-50
2021/08/17 10:42:23;;;;;;;15.30;9.53;;;;;;;;;;1886889;76;21049;-47
2021/08/17 10:44:53;;;;;;;18.90;11.38;;;;;;;;;;1886968;76;21029;-48
2021/08/17 10:47:32;;;;;;;19.10;11.33;;;;;;;;;;1886934;76;21045;-49
2021/08/17 10:50:00;;;;;;;15.93;10.28;;;;;;;;;;1886855;76;21099;-50
2021/08/17 10:52:33;;;;;;;15.83;10.45;;;;;;;;;;1886933;76;21033;-50
2021/08/17 10:55:22;;;;;;;17.10;10.85;;;;;;;;;;1886940;75;21456;-50
2021/08/17 10:58:01;;;;;;;15.63;10.48;;;;;;;;;;1887116;76;21001;-48
2021/08/17 11:00:49;;;;;;;17.67;11.30;;;;;;;;;;1886937;76;21654;-50
2021/08/17 11:03:36;;;;;;;18.40;11.48;;;;;;;;;;1886951;76;21029;-48
2021/08/17 11:06:05;;;;;;;16.87;10.70;;;;;;;;;;1886982;76;21061;-51
2021/08/17 11:08:35;;;;;;;18.73;11.60;;;;;;;;;;1887074;76;21037;-51
2021/08/17 11:11:05;;;;;;;21.25;11.75;;;;;;;;;;1886944;75;21057;-49
2021/08/17 11:13:34;;;;;;;19.17;11.48;;;;;;;;;;1884224;76;21061;-50
2021/08/17 11:16:10;;;;;;;19.42;10.63;;;;;;;;;;1887022;76;21077;-48
2021/08/17 11:18:54;;;;;;;20.08;11.28;;;;;;;;;;1886987;76;21033;-48
2021/08/17 11:21:30;;;;;;;18.70;11.35;;;;;;;;;;1887049;75;21138;-49
2021/08/17 11:24:09;;;;;;;30.52;11.88;;;;;;;;;;1887036;76;21044;-51
2021/08/17 11:26:39;;;;;;;24.27;11.95;;;;;;;;;;1885553;76;21057;-50
2021/08/17 11:29:07;;;;;;;22.00;11.50;;;;;;;;;;1886881;76;21033;-50
2021/08/17 11:31:46;;;;;;;21.97;12.60;;;;;;;;;;1887083;76;21166;-49
2021/08/17 11:34:15;;;;;;;22.05;12.53;;;;;;;;;;1886995;76;21091;-48
2021/08/17 11:36:51;;;;;;;25.85;13.93;;;;;;;;;;1886961;76;21557;-49
2021/08/17 11:39:21;;;;;;;17.90;11.35;;;;;;;;;;1885908;75;21073;-47
2021/08/17 11:41:50;;;;;;;21.05;11.65;;;;;;;;;;1886715;76;21041;-50
2021/08/17 11:44:19;;;;;;;17.65;12.58;;;;;;;;;;1887100;76;21002;-50
2021/08/17 11:46:48;;;;;;;18.17;11.25;;;;;;;;;;1886929;76;21041;-51
2021/08/17 11:49:21;;;;;;;23.27;12.58;;;;;;;;;;1887003;76;21009;-50
2021/08/17 11:52:07;;;;;;;23.50;12.53;;;;;;;;;;1886923;76;21077;-47
2021/08/17 11:54:37;;;;;;;19.87;12.53;;;;;;;;;;1886909;76;21115;-48
2021/08/17 11:57:05;;;;;;;23.35;12.68;;;;;;;;;;1886425;76;21029;-51
2021/08/17 11:59:38;;;;;;;22.42;12.13;;;;;;;;;;1886762;76;21103;-49
2021/08/17 12:02:06;;;;;;;22.25;12.98;;;;;;;;;;1886976;75;21037;-50
2021/08/17 12:04:35;;;;;;;20.10;11.95;;;;;;;;;;1886783;76;21041;-50
2021/08/17 12:07:11;;;;;;;25.02;13.25;;;;;;;;;;1886802;76;21061;-50
2021/08/17 12:09:41;;;;;;;19.90;12.75;;;;;;;;;;1886639;76;21045;-48
2021/08/17 12:12:11;;;;;;;17.65;11.55;;;;;;;;;;1885598;76;21061;-50
2021/08/17 12:14:40;;;;;;;23.12;12.80;;;;;;;;;;1886976;76;21037;-49
2021/08/17 12:17:10;;;;;;;25.25;18.10;;;;;;;;;;1886929;76;21041;-47
2021/08/17 12:19:46;;;;;;;19.10;11.60;;;;;;;;;;1886959;76;21045;-47
2021/08/17 12:22:22;;;;;;;23.38;12.43;;;;;;;;;;1886861;76;21479;-49
2021/08/17 12:24:51;;;;;;;20.77;11.90;;;;;;;;;;1886966;75;21045;-50
2021/08/17 12:27:24;;;;;;;22.93;12.88;;;;;;;;;;1886985;76;21013;-51
2021/08/17 12:29:54;;;;;;;23.25;13.83;;;;;;;;;;1886917;76;21084;-48
2021/08/17 12:32:28;;;;;;;21.80;12.68;;;;;;;;;;1886921;76;21131;-48
2021/08/17 12:35:04;;;;;;;27.27;15.78;;;;;;;;;;1887017;76;21091;-49
2021/08/17 12:37:37;;;;;;;44.23;32.98;;;;;;;;;;1886956;75;21376;-47
2021/08/17 12:40:08;;;;;;;20.97;13.13;;;;;;;;;;1886409;76;21049;-51
2021/08/17 12:42:41;;;;;;;28.90;19.55;;;;;;;;;;1886823;76;21112;-51
2021/08/17 12:45:11;;;;;;;23.12;12.68;;;;;;;;;;1887015;76;21526;-48
2021/08/17 12:47:40;;;;;;;24.63;13.75;;;;;;;;;;1874429;76;21091;-48
2021/08/17 12:50:09;;;;;;;26.93;14.20;;;;;;;;;;1886900;76;21045;-48
2021/08/17 12:52:41;;;;;;;26.17;14.47;;;;;;;;;;1886891;76;21041;-50
2021/08/17 12:55:16;;;;;;;22.55;14.38;;;;;;;;;;1887043;76;21091;-51
2021/08/17 12:57:45;;;;;;;24.25;13.43;;;;;;;;;;1887141;76;21005;-47
2021/08/17 13:00:15;;;;;;;25.17;14.00;;;;;;;;;;1886442;76;21095;-51
2021/08/17 13:02:44;;;;;;;24.05;13.80;;;;;;;;;;1886993;76;21076;-50
2021/08/17 13:05:13;;;;;;;24.02;12.70;;;;;;;;;;1886872;76;21096;-51
2021/08/17 13:07:42;;;;;;;22.73;11.90;;;;;;;;;;1886958;76;21108;-47
2021/08/17 13:10:11;;;;;;;22.42;12.73;;;;;;;;;;1886991;75;21120;-49
2021/08/17 13:12:40;;;;;;;23.60;12.88;;;;;;;;;;1886967;76;21033;-47
2021/08/17 13:15:10;;;;;;;24.55;13.13;;;;;;;;;;1886903;76;21041;-48
2021/08/17 13:17:38;;;;;;;28.40;15.10;;;;;;;;;;1886890;76;21040;-50
2021/08/17 13:20:08;;;;;;;22.85;13.62;;;;;;;;;;1886928;76;21045;-51
2021/08/17 13:22:37;;;;;;;23.45;13.80;;;;;;;;;;1886990;76;21107;-50
2021/08/17 13:25:06;;;;;;;27.13;14.50;;;;;;;;;;1887015;76;21025;-50
2021/08/17 13:27:35;;;;;;;24.57;14.75;;;;;;;;;;1887017;76;21009;-49
2021/08/17 13:30:05;;;;;;;25.27;14.15;;;;;;;;;;1886858;76;21143;-50
2021/08/17 13:32:33;;;;;;;24.23;13.93;;;;;;;;;;1886891;76;21021;-51
2021/08/17 13:35:02;;;;;;;27.17;13.40;;;;;;;;;;1887155;76;21021;-50
2021/08/17 13:37:31;;;;;;;23.18;13.05;;;;;;;;;;1887037;76;21049;-50
2021/08/17 13:40:00;;;;;;;22.90;13.68;;;;;;;;;;1886932;75;21065;-50
2021/08/17 13:42:29;;;;;;;23.55;13.55;;;;;;;;;;1886991;76;21119;-48
2021/08/17 13:44:57;;;;;;;32.93;13.80;;;;;;;;;;1887062;76;21103;-51
2021/08/17 13:47:26;;;;;;;23.40;12.88;;;;;;;;;;1886986;76;21107;-48
2021/08/17 13:49:55;;;;;;;22.45;13.13;;;;;;;;;;1886939;76;21049;-50
2021/08/17 13:52:24;;;;;;;21.40;13.55;;;;;;;;;;1886970;76;21080;-48
2021/08/17 13:54:53;;;;;;;31.62;13.90;;;;;;;;;;1886971;76;21021;-49
2021/08/17 13:57:21;;;;;;;31.00;15.65;;;;;;;;;;1886848;76;21025;-50
2021/08/17 13:59:50;;;;;;;27.35;14.13;;;;;;;;;;1886818;76;21025;-50
2021/08/17 14:02:18;;;;;;;33.90;13.75;;;;;;;;;;1886834;75;21029;-49
2021/08/17 14:04:47;;;;;;;24.20;13.80;;;;;;;;;;1886904;76;21033;-47
2021/08/17 14:07:16;;;;;;;25.57;13.40;;;;;;;;;;1886985;75;21029;-49
2021/08/17 14:09:45;;;;;;;22.45;14.53;;;;;;;;;;1886920;75;21009;-49
2021/08/17 14:12:13;;;;;;;19.00;11.88;;;;;;;;;;1886819;75;21060;-49
2021/08/17 14:14:42;;;;;;;23.55;13.03;;;;;;;;;;1886721;76;21119;-48
2021/08/17 14:17:11;;;;;;;24.95;13.98;;;;;;;;;;1886962;76;21045;-51
2021/08/17 14:19:40;;;;;;;27.77;13.10;;;;;;;;;;1886969;76;21045;-50
2021/08/17 14:22:09;;;;;;;29.02;13.43;;;;;;;;;;1886776;76;21029;-48
2021/08/17 14:24:38;;;;;;;29.25;13.62;;;;;;;;;;1886762;76;21025;-50
2021/08/17 14:27:06;;;;;;;17.95;12.10;;;;;;;;;;1886772;76;21045;-50
2021/08/17 14:29:35;;;;;;;22.85;13.03;;;;;;;;;;1886760;76;21045;-48
2021/08/17 14:32:05;;;;;;;33.38;13.93;;;;;;;;;;1886942;76;21162;-50
2021/08/17 14:34:34;;;;;;;24.37;12.95;;;;;;;;;;1886943;75;21082;-50
2021/08/17 14:37:04;;;;;;;24.10;13.25;;;;;;;;;;1887045;76;21037;-50
2021/08/17 14:39:33;;;;;;;29.23;12.82;;;;;;;;;;1889972;75;21094;-49
2021/08/17 14:42:02;;;;;;;26.40;13.80;;;;;;;;;;1893451;76;21495;-50
2021/08/17 14:44:31;;;;;;;25.80;15.55;;;;;;;;;;1893487;76;21029;-50
2021/08/17 14:47:04;;;;;;;23.95;13.53;;;;;;;;;;1893468;76;21056;-50